sensor_id;sensor_type;location;lat;lon;timestamp;pressure;altitude;pressure_sealevel;temperature;humidity
38880;BME280;25887;30.194;-97.880;2023-01-31T00:02:02;99207.03;;;3.42;58.70
38880;BME280;25887;30.194;-97.880;2023-01-31T00:04:28;99208.69;;;3.41;59.26
38880;BME280;25887;30.194;-97.880;2023-01-31T00:06:53;99218.00;;;3.41;58.74
38880;BME280;25887;30.194;-97.880;2023-01-31T00:09:19;99212.09;;;3.42;58.25
38880;BME280;25887;30.194;-97.880;2023-01-31T00:11:45;99207.03;;;3.42;58.99
38880;BME280;25887;30.194;-97.880;2023-01-31T00:14:14;99211.25;;;3.41;59.12
38880;BME280;25887;30.194;-97.880;2023-01-31T00:16:41;99200.09;;;3.38;58.93
38880;BME280;25887;30.194;-97.880;2023-01-31T00:19:07;99211.06;;;3.37;58.71
38880;BME280;25887;30.194;-97.880;2023-01-31T00:40:29;99224.03;;;3.23;58.75
38880;BME280;25887;30.194;-97.880;2023-01-31T00:43:13;99242.63;;;3.22;58.79
38880;BME280;25887;30.194;-97.880;2023-01-31T00:46:06;99245.09;;;3.21;58.93
38880;BME280;25887;30.194;-97.880;2023-01-31T00:52:15;99248.50;;;3.21;58.77
38880;BME280;25887;30.194;-97.880;2023-01-31T00:58:15;99249.31;;;3.20;58.81
38880;BME280;25887;30.194;-97.880;2023-01-31T01:01:14;99263.69;;;3.20;58.84
38880;BME280;25887;30.194;-97.880;2023-01-31T01:04:12;99252.66;;;3.19;58.63
38880;BME280;25887;30.194;-97.880;2023-01-31T01:26:18;99265.16;;;3.15;59.21
38880;BME280;25887;30.194;-97.880;2023-01-31T01:28:46;99263.47;;;3.15;58.70
38880;BME280;25887;30.194;-97.880;2023-01-31T01:31:12;99266.94;;;3.17;58.65
38880;BME280;25887;30.194;-97.880;2023-01-31T01:33:40;99263.53;;;3.17;58.95
38880;BME280;25887;30.194;-97.880;2023-01-31T01:36:20;99273.75;;;3.18;58.85
38880;BME280;25887;30.194;-97.880;2023-01-31T01:38:50;99288.06;;;3.16;58.69
38880;BME280;25887;30.194;-97.880;2023-01-31T01:41:16;99282.06;;;3.14;59.11
38880;BME280;25887;30.194;-97.880;2023-01-31T01:44:02;99279.53;;;3.14;58.92
38880;BME280;25887;30.194;-97.880;2023-01-31T01:49:05;99293.81;;;3.12;59.26
38880;BME280;25887;30.194;-97.880;2023-01-31T01:51:37;99294.69;;;3.13;58.99
38880;BME280;25887;30.194;-97.880;2023-01-31T01:54:21;99289.50;;;3.11;58.92
38880;BME280;25887;30.194;-97.880;2023-01-31T02:00:40;99287.66;;;3.07;58.69
38880;BME280;25887;30.194;-97.880;2023-01-31T02:12:53;99309.44;;;3.02;59.00
38880;BME280;25887;30.194;-97.880;2023-01-31T02:54:22;99339.06;;;2.84;58.71
38880;BME280;25887;30.194;-97.880;2023-01-31T02:57:24;99328.03;;;2.83;59.00
38880;BME280;25887;30.194;-97.880;2023-01-31T02:59:50;99337.16;;;2.79;59.06
38880;BME280;25887;30.194;-97.880;2023-01-31T03:02:16;99343.84;;;2.77;58.96
38880;BME280;25887;30.194;-97.880;2023-01-31T03:04:42;99356.59;;;2.79;59.05
38880;BME280;25887;30.194;-97.880;2023-01-31T03:07:12;99348.28;;;2.82;59.09
38880;BME280;25887;30.194;-97.880;2023-01-31T03:23:36;99346.31;;;2.76;58.64
38880;BME280;25887;30.194;-97.880;2023-01-31T03:26:03;99336.22;;;2.77;58.87
38880;BME280;25887;30.194;-97.880;2023-01-31T03:28:43;99338.78;;;2.77;58.44
38880;BME280;25887;30.194;-97.880;2023-01-31T03:31:13;99351.41;;;2.76;58.69
38880;BME280;25887;30.194;-97.880;2023-01-31T03:33:42;99342.91;;;2.75;58.85
38880;BME280;25887;30.194;-97.880;2023-01-31T03:38:56;99364.94;;;2.76;58.68
38880;BME280;25887;30.194;-97.880;2023-01-31T03:44:02;99341.47;;;2.81;58.95
38880;BME280;25887;30.194;-97.880;2023-01-31T03:46:31;99336.53;;;2.84;58.91
38880;BME280;25887;30.194;-97.880;2023-01-31T03:48:59;99347.59;;;2.86;58.77
38880;BME280;25887;30.194;-97.880;2023-01-31T03:51:28;99340.84;;;2.86;58.65
38880;BME280;25887;30.194;-97.880;2023-01-31T03:54:04;99332.25;;;2.83;59.03
38880;BME280;25887;30.194;-97.880;2023-01-31T03:56:36;99341.47;;;2.81;58.53
38880;BME280;25887;30.194;-97.880;2023-01-31T03:59:14;99352.38;;;2.79;59.21
38880;BME280;25887;30.194;-97.880;2023-01-31T04:01:42;99332.91;;;2.78;58.83
38880;BME280;25887;30.194;-97.880;2023-01-31T04:04:31;99329.50;;;2.78;58.98
38880;BME280;25887;30.194;-97.880;2023-01-31T04:07:01;99334.63;;;2.79;59.29
38880;BME280;25887;30.194;-97.880;2023-01-31T04:09:27;99343.91;;;2.79;59.02
38880;BME280;25887;30.194;-97.880;2023-01-31T04:11:53;99333.06;;;2.82;58.79
38880;BME280;25887;30.194;-97.880;2023-01-31T04:14:23;99328.78;;;2.81;58.55
38880;BME280;25887;30.194;-97.880;2023-01-31T04:16:49;99317.72;;;2.80;58.67
38880;BME280;25887;30.194;-97.880;2023-01-31T04:19:15;99326.38;;;2.84;59.02
38880;BME280;25887;30.194;-97.880;2023-01-31T04:24:37;99333.41;;;2.89;58.45
38880;BME280;25887;30.194;-97.880;2023-01-31T04:27:03;99331.84;;;2.93;58.51
38880;BME280;25887;30.194;-97.880;2023-01-31T04:29:29;99336.28;;;2.97;58.50
38880;BME280;25887;30.194;-97.880;2023-01-31T04:31:54;99322.72;;;2.96;58.73
38880;BME280;25887;30.194;-97.880;2023-01-31T04:34:20;99320.19;;;2.96;58.88
38880;BME280;25887;30.194;-97.880;2023-01-31T04:36:46;99324.47;;;2.97;58.51
38880;BME280;25887;30.194;-97.880;2023-01-31T04:39:12;99322.78;;;2.98;58.90
38880;BME280;25887;30.194;-97.880;2023-01-31T04:41:48;99320.97;;;2.95;58.89
38880;BME280;25887;30.194;-97.880;2023-01-31T04:44:14;99314.09;;;2.93;58.73
38880;BME280;25887;30.194;-97.880;2023-01-31T04:46:41;99317.44;;;2.92;58.94
38880;BME280;25887;30.194;-97.880;2023-01-31T04:49:07;99337.75;;;2.92;59.09
38880;BME280;25887;30.194;-97.880;2023-01-31T04:51:33;99332.72;;;2.93;58.68
38880;BME280;25887;30.194;-97.880;2023-01-31T04:53:59;99324.31;;;2.94;58.93
38880;BME280;25887;30.194;-97.880;2023-01-31T04:56:44;99336.28;;;2.97;58.53
38880;BME280;25887;30.194;-97.880;2023-01-31T04:59:11;99332.94;;;2.98;58.73
38880;BME280;25887;30.194;-97.880;2023-01-31T05:01:37;99334.69;;;2.99;58.66
38880;BME280;25887;30.194;-97.880;2023-01-31T05:04:03;99314.38;;;2.99;58.72
38880;BME280;25887;30.194;-97.880;2023-01-31T05:06:29;99299.09;;;2.97;58.66
38880;BME280;25887;30.194;-97.880;2023-01-31T05:08:54;99298.94;;;2.94;58.38
38880;BME280;25887;30.194;-97.880;2023-01-31T05:11:20;99288.72;;;2.93;58.49
38880;BME280;25887;30.194;-97.880;2023-01-31T05:14:04;99300.41;;;2.89;58.40
38880;BME280;25887;30.194;-97.880;2023-01-31T05:16:30;99293.50;;;2.87;58.65
38880;BME280;25887;30.194;-97.880;2023-01-31T05:18:56;99298.47;;;2.84;58.77
38880;BME280;25887;30.194;-97.880;2023-01-31T05:21:57;99297.38;;;2.78;58.84
38880;BME280;25887;30.194;-97.880;2023-01-31T05:24:24;99311.66;;;2.76;58.84
38880;BME280;25887;30.194;-97.880;2023-01-31T05:26:52;99296.38;;;2.75;58.95
38880;BME280;25887;30.194;-97.880;2023-01-31T05:29:39;99294.72;;;2.75;58.92
38880;BME280;25887;30.194;-97.880;2023-01-31T05:34:54;99297.13;;;2.72;58.97
38880;BME280;25887;30.194;-97.880;2023-01-31T05:37:20;99286.97;;;2.72;58.87
38880;BME280;25887;30.194;-97.880;2023-01-31T05:39:46;99271.66;;;2.71;58.96
38880;BME280;25887;30.194;-97.880;2023-01-31T05:42:12;99277.59;;;2.71;59.23
38880;BME280;25887;30.194;-97.880;2023-01-31T05:44:39;99270.78;;;2.70;58.75
38880;BME280;25887;30.194;-97.880;2023-01-31T05:47:05;99279.25;;;2.71;59.08
38880;BME280;25887;30.194;-97.880;2023-01-31T05:49:37;99274.19;;;2.71;58.97
38880;BME280;25887;30.194;-97.880;2023-01-31T05:52:03;99276.03;;;2.73;58.87
38880;BME280;25887;30.194;-97.880;2023-01-31T05:54:29;99282.66;;;2.71;58.88
38880;BME280;25887;30.194;-97.880;2023-01-31T05:56:55;99276.66;;;2.69;58.92
38880;BME280;25887;30.194;-97.880;2023-01-31T05:59:21;99283.41;;;2.69;58.67
38880;BME280;25887;30.194;-97.880;2023-01-31T06:01:47;99292.69;;;2.68;58.70
38880;BME280;25887;30.194;-97.880;2023-01-31T06:04:12;99298.50;;;2.66;58.69
38880;BME280;25887;30.194;-97.880;2023-01-31T06:06:38;99294.13;;;2.63;58.75
38880;BME280;25887;30.194;-97.880;2023-01-31T06:09:05;99284.00;;;2.63;58.65
38880;BME280;25887;30.194;-97.880;2023-01-31T06:11:31;99278.91;;;2.63;58.67
38880;BME280;25887;30.194;-97.880;2023-01-31T06:13:56;99284.00;;;2.63;58.87
38880;BME280;25887;30.194;-97.880;2023-01-31T06:16:23;99286.47;;;2.62;58.79
38880;BME280;25887;30.194;-97.880;2023-01-31T06:18:49;99284.00;;;2.63;58.79
38880;BME280;25887;30.194;-97.880;2023-01-31T06:21:33;99299.22;;;2.63;58.74
38880;BME280;25887;30.194;-97.880;2023-01-31T06:23:59;99298.28;;;2.61;58.54
38880;BME280;25887;30.194;-97.880;2023-01-31T06:26:25;99285.59;;;2.61;58.62
38880;BME280;25887;30.194;-97.880;2023-01-31T06:28:50;99286.47;;;2.62;58.72
38880;BME280;25887;30.194;-97.880;2023-01-31T06:31:26;99281.38;;;2.62;58.69
38880;BME280;25887;30.194;-97.880;2023-01-31T06:33:52;99272.91;;;2.61;58.90
38880;BME280;25887;30.194;-97.880;2023-01-31T06:36:18;99280.53;;;2.61;58.85
38880;BME280;25887;30.194;-97.880;2023-01-31T06:38:47;99261.84;;;2.59;58.93
38880;BME280;25887;30.194;-97.880;2023-01-31T06:41:13;99259.31;;;2.59;58.69
38880;BME280;25887;30.194;-97.880;2023-01-31T06:43:39;99264.38;;;2.59;58.85
38880;BME280;25887;30.194;-97.880;2023-01-31T06:46:20;99266.84;;;2.58;58.87
38880;BME280;25887;30.194;-97.880;2023-01-31T06:48:47;99255.03;;;2.58;58.72
38880;BME280;25887;30.194;-97.880;2023-01-31T06:51:14;99240.75;;;2.60;59.05
38880;BME280;25887;30.194;-97.880;2023-01-31T06:53:40;99244.22;;;2.62;58.76
38880;BME280;25887;30.194;-97.880;2023-01-31T06:56:12;99244.38;;;2.65;58.92
38880;BME280;25887;30.194;-97.880;2023-01-31T06:58:38;99236.81;;;2.67;58.66
38880;BME280;25887;30.194;-97.880;2023-01-31T07:01:04;99227.59;;;2.69;58.85
38880;BME280;25887;30.194;-97.880;2023-01-31T07:03:30;99229.28;;;2.68;58.75
38880;BME280;25887;30.194;-97.880;2023-01-31T07:05:56;99225.00;;;2.67;58.95
38880;BME280;25887;30.194;-97.880;2023-01-31T07:08:22;99213.13;;;2.66;58.78
38880;BME280;25887;30.194;-97.880;2023-01-31T07:10:48;99215.66;;;2.66;58.87
38880;BME280;25887;30.194;-97.880;2023-01-31T07:13:14;99231.69;;;2.65;58.71
38880;BME280;25887;30.194;-97.880;2023-01-31T07:15:58;99233.25;;;2.63;58.88
38880;BME280;25887;30.194;-97.880;2023-01-31T07:18:43;99211.22;;;2.62;58.73
38880;BME280;25887;30.194;-97.880;2023-01-31T07:21:30;99220.50;;;2.62;58.86
38880;BME280;25887;30.194;-97.880;2023-01-31T07:23:57;99206.97;;;2.61;58.88
38880;BME280;25887;30.194;-97.880;2023-01-31T07:26:24;99211.03;;;2.58;59.08
38880;BME280;25887;30.194;-97.880;2023-01-31T07:28:50;99220.22;;;2.56;58.81
38880;BME280;25887;30.194;-97.880;2023-01-31T07:31:16;99220.16;;;2.54;58.94
38880;BME280;25887;30.194;-97.880;2023-01-31T07:33:42;99217.50;;;2.51;58.55
38880;BME280;25887;30.194;-97.880;2023-01-31T07:36:08;99212.38;;;2.49;58.67
38880;BME280;25887;30.194;-97.880;2023-01-31T07:38:35;99206.41;;;2.49;58.94
38880;BME280;25887;30.194;-97.880;2023-01-31T07:41:01;99207.19;;;2.48;58.68
38880;BME280;25887;30.194;-97.880;2023-01-31T07:43:28;99214.75;;;2.46;58.97
38880;BME280;25887;30.194;-97.880;2023-01-31T07:45:54;99220.56;;;2.44;58.90
38880;BME280;25887;30.194;-97.880;2023-01-31T07:48:20;99228.16;;;2.44;58.94
38880;BME280;25887;30.194;-97.880;2023-01-31T07:50:49;99225.69;;;2.45;59.01
38880;BME280;25887;30.194;-97.880;2023-01-31T07:53:15;99233.38;;;2.47;58.95
38880;BME280;25887;30.194;-97.880;2023-01-31T07:56:05;99246.91;;;2.47;58.94
38880;BME280;25887;30.194;-97.880;2023-01-31T07:58:33;99240.16;;;2.48;58.96
38880;BME280;25887;30.194;-97.880;2023-01-31T08:00:59;99233.38;;;2.47;59.09
38880;BME280;25887;30.194;-97.880;2023-01-31T08:03:43;99232.66;;;2.49;59.06
38880;BME280;25887;30.194;-97.880;2023-01-31T08:06:21;99247.94;;;2.51;59.10
38880;BME280;25887;30.194;-97.880;2023-01-31T08:08:47;99233.59;;;2.51;59.03
38880;BME280;25887;30.194;-97.880;2023-01-31T08:11:13;99224.31;;;2.52;58.53
38880;BME280;25887;30.194;-97.880;2023-01-31T08:13:39;99213.31;;;2.51;58.82
38880;BME280;25887;30.194;-97.880;2023-01-31T08:16:25;99221.78;;;2.52;58.83
38880;BME280;25887;30.194;-97.880;2023-01-31T08:18:51;99230.19;;;2.51;58.86
38880;BME280;25887;30.194;-97.880;2023-01-31T08:21:18;99235.97;;;2.48;58.93
38880;BME280;25887;30.194;-97.880;2023-01-31T08:23:56;99226.63;;;2.47;59.18
38880;BME280;25887;30.194;-97.880;2023-01-31T08:26:21;99218.09;;;2.45;58.87
38880;BME280;25887;30.194;-97.880;2023-01-31T08:29:06;99215.50;;;2.44;59.06
38880;BME280;25887;30.194;-97.880;2023-01-31T08:31:32;99217.97;;;2.42;59.07
38880;BME280;25887;30.194;-97.880;2023-01-31T08:34:02;99212.78;;;2.41;58.96
38880;BME280;25887;30.194;-97.880;2023-01-31T08:36:42;99219.63;;;2.42;58.79
38880;BME280;25887;30.194;-97.880;2023-01-31T08:39:08;99216.13;;;2.40;58.69
38880;BME280;25887;30.194;-97.880;2023-01-31T08:41:34;99216.94;;;2.39;59.09
38880;BME280;25887;30.194;-97.880;2023-01-31T08:44:01;99224.59;;;2.40;59.31
38880;BME280;25887;30.194;-97.880;2023-01-31T08:46:47;99217.69;;;2.36;58.93
38880;BME280;25887;30.194;-97.880;2023-01-31T08:49:13;99218.41;;;2.34;59.16
38880;BME280;25887;30.194;-97.880;2023-01-31T08:51:39;99203.97;;;2.33;59.36
38880;BME280;25887;30.194;-97.880;2023-01-31T08:54:25;99204.94;;;2.35;59.17
38880;BME280;25887;30.194;-97.880;2023-01-31T08:56:51;99204.13;;;2.36;58.88
38880;BME280;25887;30.194;-97.880;2023-01-31T08:59:17;99198.13;;;2.34;59.30
38880;BME280;25887;30.194;-97.880;2023-01-31T09:01:42;99194.00;;;2.36;59.00
38880;BME280;25887;30.194;-97.880;2023-01-31T09:04:11;99200.72;;;2.35;59.26
38880;BME280;25887;30.194;-97.880;2023-01-31T09:06:36;99203.31;;;2.37;59.27
38880;BME280;25887;30.194;-97.880;2023-01-31T09:09:02;99199.88;;;2.35;58.98
38880;BME280;25887;30.194;-97.880;2023-01-31T09:11:50;99197.31;;;2.35;59.17
38880;BME280;25887;30.194;-97.880;2023-01-31T09:14:34;99200.72;;;2.35;59.23
38880;BME280;25887;30.194;-97.880;2023-01-31T09:17:00;99199.94;;;2.36;59.28
38880;BME280;25887;30.194;-97.880;2023-01-31T09:19:27;99187.25;;;2.36;59.23
38880;BME280;25887;30.194;-97.880;2023-01-31T09:21:53;99198.31;;;2.38;59.22
38880;BME280;25887;30.194;-97.880;2023-01-31T09:24:39;99227.25;;;2.42;59.12
38880;BME280;25887;30.194;-97.880;2023-01-31T09:27:05;99220.56;;;2.44;59.10
38880;BME280;25887;30.194;-97.880;2023-01-31T09:29:48;99220.69;;;2.47;59.22
38880;BME280;25887;30.194;-97.880;2023-01-31T09:32:28;99202.13;;;2.48;58.86
38880;BME280;25887;30.194;-97.880;2023-01-31T09:34:56;99196.19;;;2.47;59.05
38880;BME280;25887;30.194;-97.880;2023-01-31T09:37:22;99189.44;;;2.48;59.15
38880;BME280;25887;30.194;-97.880;2023-01-31T09:39:47;99200.41;;;2.47;59.05
38880;BME280;25887;30.194;-97.880;2023-01-31T09:42:24;99197.78;;;2.45;58.97
38880;BME280;25887;30.194;-97.880;2023-01-31T09:44:57;99207.00;;;2.43;58.86
38880;BME280;25887;30.194;-97.880;2023-01-31T09:50:20;99197.44;;;2.38;58.98
38880;BME280;25887;30.194;-97.880;2023-01-31T09:52:47;99203.38;;;2.38;59.01
38880;BME280;25887;30.194;-97.880;2023-01-31T09:55:17;99200.06;;;2.39;59.04
38880;BME280;25887;30.194;-97.880;2023-01-31T10:10:36;99197.22;;;2.51;58.88
38880;BME280;25887;30.194;-97.880;2023-01-31T10:13:43;99202.34;;;2.53;58.93
38880;BME280;25887;30.194;-97.880;2023-01-31T10:16:30;99202.28;;;2.51;58.81
38880;BME280;25887;30.194;-97.880;2023-01-31T10:19:15;99214.97;;;2.51;58.87
38880;BME280;25887;30.194;-97.880;2023-01-31T10:21:56;99204.03;;;2.52;58.83
38880;BME280;25887;30.194;-97.880;2023-01-31T10:24:33;99221.72;;;2.50;58.56
38880;BME280;25887;30.194;-97.880;2023-01-31T10:27:16;99227.59;;;2.49;58.89
38880;BME280;25887;30.194;-97.880;2023-01-31T10:29:44;99224.03;;;2.46;58.86
38880;BME280;25887;30.194;-97.880;2023-01-31T10:32:18;99209.56;;;2.43;58.35
38880;BME280;25887;30.194;-97.880;2023-01-31T10:34:47;99212.88;;;2.42;58.83
38880;BME280;25887;30.194;-97.880;2023-01-31T10:40:34;99229.50;;;2.36;59.04
38880;BME280;25887;30.194;-97.880;2023-01-31T10:45:45;99237.03;;;2.34;59.03
38880;BME280;25887;30.194;-97.880;2023-01-31T10:48:18;99230.94;;;2.31;59.05
38880;BME280;25887;30.194;-97.880;2023-01-31T10:53:15;99233.41;;;2.29;59.15
38880;BME280;25887;30.194;-97.880;2023-01-31T10:58:15;99236.81;;;2.30;59.22
38880;BME280;25887;30.194;-97.880;2023-01-31T11:00:42;99228.19;;;2.26;59.06
38880;BME280;25887;30.194;-97.880;2023-01-31T11:03:11;99235.72;;;2.24;58.92
38880;BME280;25887;30.194;-97.880;2023-01-31T11:05:51;99241.59;;;2.23;59.19
38880;BME280;25887;30.194;-97.880;2023-01-31T11:08:34;99246.66;;;2.23;59.17
38880;BME280;25887;30.194;-97.880;2023-01-31T11:11:05;99239.84;;;2.22;59.35
38880;BME280;25887;30.194;-97.880;2023-01-31T11:13:31;99233.84;;;2.20;59.11
38880;BME280;25887;30.194;-97.880;2023-01-31T11:15:57;99227.91;;;2.20;59.12
38880;BME280;25887;30.194;-97.880;2023-01-31T11:18:31;99243.13;;;2.20;58.94
38880;BME280;25887;30.194;-97.880;2023-01-31T11:20:58;99232.91;;;2.18;59.24
38880;BME280;25887;30.194;-97.880;2023-01-31T11:23:26;99235.34;;;2.17;58.98
38880;BME280;25887;30.194;-97.880;2023-01-31T11:25:52;99226.88;;;2.16;59.08
38880;BME280;25887;30.194;-97.880;2023-01-31T11:30:49;99237.81;;;2.15;59.39
38880;BME280;25887;30.194;-97.880;2023-01-31T11:33:44;99253.03;;;2.15;59.25
38880;BME280;25887;30.194;-97.880;2023-01-31T11:36:14;99249.56;;;2.13;59.03
38880;BME280;25887;30.194;-97.880;2023-01-31T11:38:41;99268.16;;;2.14;59.07
38880;BME280;25887;30.194;-97.880;2023-01-31T11:41:29;99257.22;;;2.15;59.26
38880;BME280;25887;30.194;-97.880;2023-01-31T11:46:41;99252.72;;;2.09;59.41
38880;BME280;25887;30.194;-97.880;2023-01-31T11:49:41;99250.06;;;2.06;59.18
38880;BME280;25887;30.194;-97.880;2023-01-31T11:52:13;99271.16;;;2.05;59.32
38880;BME280;25887;30.194;-97.880;2023-01-31T11:54:44;99254.03;;;2.01;59.34
38880;BME280;25887;30.194;-97.880;2023-01-31T11:57:44;99255.69;;;2.01;59.16
38880;BME280;25887;30.194;-97.880;2023-01-31T12:00:05;99256.44;;;1.98;59.39
38880;BME280;25887;30.194;-97.880;2023-01-31T12:02:36;99250.56;;;1.99;59.31
38880;BME280;25887;30.194;-97.880;2023-01-31T12:05:07;99243.84;;;2.00;59.44
38880;BME280;25887;30.194;-97.880;2023-01-31T12:07:42;99240.31;;;1.96;59.47
38880;BME280;25887;30.194;-97.880;2023-01-31T12:10:31;99243.63;;;1.95;59.31
38880;BME280;25887;30.194;-97.880;2023-01-31T12:12:57;99240.13;;;1.93;59.56
38880;BME280;25887;30.194;-97.880;2023-01-31T12:15:50;99250.28;;;1.93;59.22
38880;BME280;25887;30.194;-97.880;2023-01-31T12:18:28;99243.47;;;1.92;59.57
38880;BME280;25887;30.194;-97.880;2023-01-31T12:21:02;99243.47;;;1.92;59.59
38880;BME280;25887;30.194;-97.880;2023-01-31T12:23:38;99251.94;;;1.92;59.71
38880;BME280;25887;30.194;-97.880;2023-01-31T12:26:10;99262.94;;;1.93;59.64
38880;BME280;25887;30.194;-97.880;2023-01-31T12:31:26;99278.16;;;1.93;59.39
38880;BME280;25887;30.194;-97.880;2023-01-31T12:36:43;99279.13;;;1.95;59.60
38880;BME280;25887;30.194;-97.880;2023-01-31T12:47:17;99241.47;;;2.03;59.60
38880;BME280;25887;30.194;-97.880;2023-01-31T12:52:44;99255.63;;;1.99;59.65
38880;BME280;25887;30.194;-97.880;2023-01-31T13:08:20;99300.63;;;2.03;59.60
38880;BME280;25887;30.194;-97.880;2023-01-31T13:10:48;99310.09;;;2.07;59.61
38880;BME280;25887;30.194;-97.880;2023-01-31T13:13:24;99306.81;;;2.10;59.64
38880;BME280;25887;30.194;-97.880;2023-01-31T13:18:38;99307.19;;;2.17;59.48
38880;BME280;25887;30.194;-97.880;2023-01-31T13:21:05;99303.78;;;2.17;59.67
38880;BME280;25887;30.194;-97.880;2023-01-31T13:23:33;99290.25;;;2.16;59.45
38880;BME280;25887;30.194;-97.880;2023-01-31T13:26:02;99281.84;;;2.17;59.43
38880;BME280;25887;30.194;-97.880;2023-01-31T13:28:42;99297.06;;;2.17;59.58
38880;BME280;25887;30.194;-97.880;2023-01-31T13:31:19;99325.75;;;2.16;59.45
38880;BME280;25887;30.194;-97.880;2023-01-31T13:33:57;99334.13;;;2.15;59.54
38880;BME280;25887;30.194;-97.880;2023-01-31T13:36:28;99334.22;;;2.17;59.52
38880;BME280;25887;30.194;-97.880;2023-01-31T13:38:56;99346.88;;;2.17;59.48
38880;BME280;25887;30.194;-97.880;2023-01-31T13:41:25;99355.34;;;2.17;59.47
38880;BME280;25887;30.194;-97.880;2023-01-31T13:43:51;99366.28;;;2.16;59.30
38880;BME280;25887;30.194;-97.880;2023-01-31T13:46:19;99362.97;;;2.17;59.28
38880;BME280;25887;30.194;-97.880;2023-01-31T13:49:07;99364.41;;;2.12;59.42
38880;BME280;25887;30.194;-97.880;2023-01-31T13:51:39;99382.00;;;2.09;59.68
38880;BME280;25887;30.194;-97.880;2023-01-31T13:56:58;99381.13;;;2.09;59.44
38880;BME280;25887;30.194;-97.880;2023-01-31T13:59:26;99398.88;;;2.09;59.54
38880;BME280;25887;30.194;-97.880;2023-01-31T14:02:01;99409.88;;;2.09;59.60
38880;BME280;25887;30.194;-97.880;2023-01-31T14:04:29;99398.78;;;2.07;59.63
38880;BME280;25887;30.194;-97.880;2023-01-31T14:09:34;99394.53;;;2.06;59.37
38880;BME280;25887;30.194;-97.880;2023-01-31T14:14:51;99413.13;;;2.07;59.80
38880;BME280;25887;30.194;-97.880;2023-01-31T14:20:06;99416.59;;;2.09;59.85
38880;BME280;25887;30.194;-97.880;2023-01-31T14:25:40;99407.59;;;2.14;59.49
38880;BME280;25887;30.194;-97.880;2023-01-31T14:28:09;99420.31;;;2.15;59.49
38880;BME280;25887;30.194;-97.880;2023-01-31T14:30:43;99422.06;;;2.16;59.57
38880;BME280;25887;30.194;-97.880;2023-01-31T14:41:11;99433.00;;;2.15;59.80
38880;BME280;25887;30.194;-97.880;2023-01-31T15:02:17;99452.66;;;2.19;59.69
38880;BME280;25887;30.194;-97.880;2023-01-31T15:08:29;99457.72;;;2.19;59.65
38880;BME280;25887;30.194;-97.880;2023-01-31T15:17:21;99488.94;;;2.18;59.56
38880;BME280;25887;30.194;-97.880;2023-01-31T15:23:27;99503.56;;;2.24;59.74
38880;BME280;25887;30.194;-97.880;2023-01-31T15:29:26;99491.88;;;2.26;59.99
38880;BME280;25887;30.194;-97.880;2023-01-31T15:41:44;99507.59;;;2.37;59.86
38880;BME280;25887;30.194;-97.880;2023-01-31T15:44:49;99516.94;;;2.38;59.83
38880;BME280;25887;30.194;-97.880;2023-01-31T15:48:28;99527.16;;;2.39;59.66
38880;BME280;25887;30.194;-97.880;2023-01-31T15:50:30;99540.66;;;2.38;59.65
38880;BME280;25887;30.194;-97.880;2023-01-31T15:53:46;99542.06;;;2.33;59.66
38880;BME280;25887;30.194;-97.880;2023-01-31T15:59:18;99538.50;;;2.30;59.74
38880;BME280;25887;30.194;-97.880;2023-01-31T16:01:47;99532.56;;;2.29;59.83
38880;BME280;25887;30.194;-97.880;2023-01-31T16:04:15;99524.97;;;2.29;59.66
38880;BME280;25887;30.194;-97.880;2023-01-31T16:06:41;99521.38;;;2.26;59.68
38880;BME280;25887;30.194;-97.880;2023-01-31T16:09:40;99542.47;;;2.24;59.81
38880;BME280;25887;30.194;-97.880;2023-01-31T16:12:07;99549.28;;;2.26;59.90
38880;BME280;25887;30.194;-97.880;2023-01-31T16:14:36;99548.25;;;2.22;60.18
38880;BME280;25887;30.194;-97.880;2023-01-31T16:17:02;99566.06;;;2.23;59.89
38880;BME280;25887;30.194;-97.880;2023-01-31T16:19:55;99567.66;;;2.21;59.83
38880;BME280;25887;30.194;-97.880;2023-01-31T16:24:54;99551.66;;;2.22;59.89
38880;BME280;25887;30.194;-97.880;2023-01-31T16:27:22;99572.75;;;2.21;59.89
38880;BME280;25887;30.194;-97.880;2023-01-31T16:29:58;99562.75;;;2.24;60.01
38880;BME280;25887;30.194;-97.880;2023-01-31T16:32:39;99554.34;;;2.26;59.74
38880;BME280;25887;30.194;-97.880;2023-01-31T16:38:29;99541.53;;;2.22;59.85
38880;BME280;25887;30.194;-97.880;2023-01-31T16:41:29;99534.84;;;2.24;59.72
38880;BME280;25887;30.194;-97.880;2023-01-31T16:44:28;99547.53;;;2.24;60.08
38880;BME280;25887;30.194;-97.880;2023-01-31T17:02:27;99558.19;;;2.34;59.93
38880;BME280;25887;30.194;-97.880;2023-01-31T17:14:12;99579.22;;;2.33;59.97
38880;BME280;25887;30.194;-97.880;2023-01-31T17:16:58;99574.25;;;2.34;60.05
38880;BME280;25887;30.194;-97.880;2023-01-31T17:25:53;99539.44;;;2.32;59.97
38880;BME280;25887;30.194;-97.880;2023-01-31T17:41:03;99548.19;;;2.37;59.78
38880;BME280;25887;30.194;-97.880;2023-01-31T18:17:28;99482.25;;;2.37;60.16
38880;BME280;25887;30.194;-97.880;2023-01-31T18:20:37;99495.94;;;2.40;60.38
38880;BME280;25887;30.194;-97.880;2023-01-31T18:23:32;99491.72;;;2.41;60.52
38880;BME280;25887;30.194;-97.880;2023-01-31T18:32:21;99451.81;;;2.37;60.40
38880;BME280;25887;30.194;-97.880;2023-01-31T18:35:09;99450.22;;;2.39;60.48
38880;BME280;25887;30.194;-97.880;2023-01-31T18:50:20;99457.03;;;2.40;60.23
38880;BME280;25887;30.194;-97.880;2023-01-31T18:53:24;99469.72;;;2.40;60.29
38880;BME280;25887;30.194;-97.880;2023-01-31T19:02:59;99451.16;;;2.41;60.44
38880;BME280;25887;30.194;-97.880;2023-01-31T19:05:50;99448.47;;;2.38;60.61
38880;BME280;25887;30.194;-97.880;2023-01-31T19:08:36;99430.81;;;2.39;60.37
38880;BME280;25887;30.194;-97.880;2023-01-31T19:11:03;99435.19;;;2.42;60.34
38880;BME280;25887;30.194;-97.880;2023-01-31T19:13:28;99434.44;;;2.44;60.63
38880;BME280;25887;30.194;-97.880;2023-01-31T19:15:58;99440.44;;;2.46;60.54
38880;BME280;25887;30.194;-97.880;2023-01-31T19:18:24;99443.06;;;2.48;60.37
38880;BME280;25887;30.194;-97.880;2023-01-31T19:20:50;99446.56;;;2.50;60.45
38880;BME280;25887;30.194;-97.880;2023-01-31T19:23:21;99450.91;;;2.53;60.46
38880;BME280;25887;30.194;-97.880;2023-01-31T19:25:47;99452.72;;;2.55;60.49
38880;BME280;25887;30.194;-97.880;2023-01-31T19:28:13;99436.78;;;2.58;60.40